createdAt,value
2022-11-26T00:00:26.598Z,1017.30
2022-11-26T00:01:26.599Z,1017.33
2022-11-26T00:02:26.694Z,1017.36
2022-11-26T00:03:26.635Z,1017.36
2022-11-26T00:04:26.581Z,1017.37
2022-11-26T00:05:26.577Z,1017.35
2022-11-26T00:06:26.579Z,1017.36
2022-11-26T00:07:26.843Z,1017.37
2022-11-26T00:08:26.575Z,1017.38
2022-11-26T00:09:26.566Z,1017.38
2022-11-26T00:10:26.565Z,1017.35
2022-11-26T00:11:26.564Z,1017.38
2022-11-26T00:12:26.561Z,1017.35
2022-11-26T00:13:26.557Z,1017.34
2022-11-26T00:14:26.558Z,1017.36
2022-11-26T00:15:26.550Z,1017.36
2022-11-26T00:16:26.665Z,1017.30
2022-11-26T00:17:26.557Z,1017.32
2022-11-26T00:18:26.655Z,1017.30
2022-11-26T00:19:26.540Z,1017.38
2022-11-26T00:20:26.542Z,1017.40
2022-11-26T00:21:26.536Z,1017.45
2022-11-26T00:22:26.550Z,1017.45
2022-11-26T00:23:26.551Z,1017.47
2022-11-26T00:24:26.534Z,1017.44
2022-11-26T00:25:26.527Z,1017.43
2022-11-26T00:26:26.529Z,1017.47
2022-11-26T00:27:26.524Z,1017.46
2022-11-26T00:28:26.523Z,1017.45
2022-11-26T00:29:26.512Z,1017.47
2022-11-26T00:30:26.521Z,1017.47
2022-11-26T00:31:26.568Z,1017.50
2022-11-26T00:32:26.518Z,1017.52
2022-11-26T00:33:26.505Z,1017.50
2022-11-26T00:34:26.507Z,1017.51
2022-11-26T00:35:26.502Z,1017.54
2022-11-26T00:36:26.504Z,1017.54
2022-11-26T00:37:26.497Z,1017.56
2022-11-26T00:38:26.508Z,1017.57
2022-11-26T00:39:26.510Z,1017.58
2022-11-26T00:40:26.492Z,1017.61
2022-11-26T00:41:26.492Z,1017.57
2022-11-26T00:42:26.484Z,1017.61
2022-11-26T00:43:26.483Z,1017.63
2022-11-26T00:44:26.485Z,1017.61
2022-11-26T00:45:26.530Z,1017.62
2022-11-26T00:46:26.569Z,1017.67
2022-11-26T00:47:26.468Z,1017.65
2022-11-26T00:48:26.475Z,1017.72
2022-11-26T00:49:26.465Z,1017.66
2022-11-26T00:50:26.464Z,1017.72
2022-11-26T00:51:26.459Z,1017.76
2022-11-26T00:52:26.470Z,1017.79
2022-11-26T00:53:26.456Z,1017.82
2022-11-26T00:54:26.453Z,1017.86
2022-11-26T00:55:26.481Z,1017.83
2022-11-26T00:56:26.452Z,1017.80
2022-11-26T00:57:26.444Z,1017.82
2022-11-26T00:58:26.455Z,1017.80
2022-11-26T00:59:26.444Z,1017.82
2022-11-26T01:00:26.448Z,1017.84
2022-11-26T01:01:26.527Z,1017.83
2022-11-26T01:02:26.518Z,1017.83
2022-11-26T01:03:26.429Z,1017.88
2022-11-26T01:04:26.431Z,1017.88
2022-11-26T01:05:26.428Z,1017.89
2022-11-26T01:06:26.436Z,1017.87
2022-11-26T01:07:26.452Z,1017.88
2022-11-26T01:08:26.421Z,1017.90
2022-11-26T01:09:26.426Z,1017.91
2022-11-26T01:10:26.418Z,1017.90
2022-11-26T01:11:26.458Z,1017.94
2022-11-26T01:12:26.410Z,1017.94
2022-11-26T01:13:26.407Z,1017.96
2022-11-26T01:14:26.413Z,1017.94
2022-11-26T01:15:26.399Z,1017.95
2022-11-26T01:16:26.496Z,1017.92
2022-11-26T01:17:26.398Z,1017.96
2022-11-26T01:18:26.409Z,1018.00
2022-11-26T01:19:26.395Z,1018.00
2022-11-26T01:20:26.394Z,1017.99
2022-11-26T01:21:26.391Z,1017.98
2022-11-26T01:22:26.397Z,1018.03
2022-11-26T01:23:26.383Z,1018.04
2022-11-26T01:24:26.384Z,1018.05
2022-11-26T01:25:26.381Z,1018.05
2022-11-26T01:26:26.386Z,1018.06
2022-11-26T01:27:26.395Z,1018.05
2022-11-26T01:28:26.377Z,1018.09
2022-11-26T01:29:26.375Z,1018.16
2022-11-26T01:30:26.372Z,1018.14
2022-11-26T01:31:26.462Z,1018.16
2022-11-26T01:32:29.417Z,1018.17
2022-11-26T01:33:26.361Z,1018.15
2022-11-26T01:34:26.363Z,1018.16
2022-11-26T01:35:26.355Z,1018.19
2022-11-26T01:36:26.357Z,1018.19
2022-11-26T01:37:26.349Z,1018.17
2022-11-26T01:38:26.353Z,1018.21
2022-11-26T01:39:26.351Z,1018.20
2022-11-26T01:40:26.349Z,1018.19
2022-11-26T01:41:26.343Z,1018.21
2022-11-26T01:42:26.349Z,1018.18
2022-11-26T01:43:26.360Z,1018.20
2022-11-26T01:44:26.344Z,1018.20
2022-11-26T01:45:26.420Z,1018.22
2022-11-26T01:46:26.347Z,1018.25
2022-11-26T01:47:26.335Z,1018.21
2022-11-26T01:48:26.328Z,1018.26
2022-11-26T01:49:26.320Z,1018.26
2022-11-26T01:50:26.324Z,1018.25
2022-11-26T01:51:26.322Z,1018.27
2022-11-26T01:52:26.325Z,1018.29
2022-11-26T01:53:26.318Z,1018.28
2022-11-26T01:54:26.313Z,1018.32
2022-11-26T01:55:26.311Z,1018.29
2022-11-26T01:56:26.316Z,1018.35
2022-11-26T01:57:26.308Z,1018.35
2022-11-26T01:58:26.309Z,1018.36
2022-11-26T01:59:26.326Z,1018.40
2022-11-26T02:00:26.304Z,1018.38
2022-11-26T02:01:26.415Z,1018.43
2022-11-26T02:02:26.362Z,1018.42
2022-11-26T02:03:26.296Z,1018.39
2022-11-26T02:04:26.294Z,1018.39
2022-11-26T02:05:26.289Z,1018.42
2022-11-26T02:06:26.289Z,1018.42
2022-11-26T02:07:26.420Z,1018.41
2022-11-26T02:08:26.286Z,1018.44
2022-11-26T02:09:26.280Z,1018.45
2022-11-26T02:10:26.282Z,1018.51
2022-11-26T02:11:26.279Z,1018.47
2022-11-26T02:12:26.277Z,1018.51
2022-11-26T02:13:26.274Z,1018.51
2022-11-26T02:14:26.273Z,1018.51
2022-11-26T02:15:26.387Z,1018.50
2022-11-26T02:16:26.346Z,1018.50
2022-11-26T02:17:26.272Z,1018.48
2022-11-26T02:18:26.267Z,1018.50
2022-11-26T02:19:26.260Z,1018.48
2022-11-26T02:20:26.259Z,1018.52
2022-11-26T02:21:26.274Z,1018.52
2022-11-26T02:22:26.254Z,1018.50
2022-11-26T02:23:26.259Z,1018.54
2022-11-26T02:24:26.248Z,1018.51
2022-11-26T02:25:26.255Z,1018.50
2022-11-26T02:26:26.246Z,1018.53
2022-11-26T02:27:26.247Z,1018.52
2022-11-26T02:28:26.244Z,1018.52
2022-11-26T02:29:26.240Z,1018.54
2022-11-26T02:30:26.234Z,1018.58
2022-11-26T02:31:26.343Z,1018.64
2022-11-26T02:32:26.233Z,1018.67
2022-11-26T02:33:26.233Z,1018.66
2022-11-26T02:34:26.226Z,1018.63
2022-11-26T02:35:26.228Z,1018.65
2022-11-26T02:36:26.221Z,1018.67
2022-11-26T02:37:26.226Z,1018.71
2022-11-26T02:38:26.221Z,1018.73
2022-11-26T02:39:26.221Z,1018.76
2022-11-26T02:40:26.217Z,1018.73
2022-11-26T02:41:26.216Z,1018.77
2022-11-26T02:42:26.216Z,1018.80
2022-11-26T02:43:26.214Z,1018.81
2022-11-26T02:44:26.203Z,1018.79
2022-11-26T02:45:26.248Z,1018.84
2022-11-26T02:46:26.254Z,1018.83
2022-11-26T02:47:26.226Z,1018.81
2022-11-26T02:48:26.205Z,1018.88
2022-11-26T02:49:26.201Z,1018.83
2022-11-26T02:50:26.193Z,1018.86
2022-11-26T02:51:30.682Z,1018.85
2022-11-26T02:52:26.195Z,1018.85
2022-11-26T02:53:26.195Z,1018.87
2022-11-26T02:54:26.186Z,1018.90
2022-11-26T02:55:26.194Z,1018.88
2022-11-26T02:56:26.184Z,1018.90
2022-11-26T02:57:26.184Z,1018.88
2022-11-26T02:58:26.174Z,1018.87
2022-11-26T02:59:26.181Z,1018.84
2022-11-26T03:00:26.173Z,1018.89
2022-11-26T03:01:26.262Z,1018.89
2022-11-26T03:02:26.172Z,1018.85
2022-11-26T03:03:26.208Z,1018.85
2022-11-26T03:04:26.275Z,1018.88
2022-11-26T03:05:26.169Z,1018.86
2022-11-26T03:06:26.166Z,1018.88
2022-11-26T03:07:26.185Z,1018.86
2022-11-26T03:08:26.158Z,1018.85
2022-11-26T03:09:26.162Z,1018.83
2022-11-26T03:10:26.160Z,1018.83
2022-11-26T03:11:26.218Z,1018.84
2022-11-26T03:12:26.153Z,1018.83
2022-11-26T03:13:26.152Z,1018.89
2022-11-26T03:14:26.146Z,1018.91
2022-11-26T03:15:26.150Z,1018.92
2022-11-26T03:16:26.241Z,1018.92
2022-11-26T03:17:26.149Z,1018.89
2022-11-26T03:18:26.137Z,1018.91
2022-11-26T03:19:26.164Z,1018.93
2022-11-26T03:20:26.138Z,1018.93
2022-11-26T03:21:26.134Z,1018.90
2022-11-26T03:22:26.135Z,1018.86
2022-11-26T03:23:26.132Z,1018.84
2022-11-26T03:24:26.127Z,1018.88
2022-11-26T03:25:26.127Z,1018.96
2022-11-26T03:26:26.124Z,1018.99
2022-11-26T03:27:26.118Z,1018.98
2022-11-26T03:28:26.124Z,1018.99
2022-11-26T03:29:26.125Z,1019.03
2022-11-26T03:30:26.131Z,1019.03
2022-11-26T03:31:26.152Z,1019.10
2022-11-26T03:32:26.111Z,1019.06
2022-11-26T03:33:26.113Z,1019.12
2022-11-26T03:34:26.109Z,1019.10
2022-11-26T03:35:26.129Z,1019.13
2022-11-26T03:36:26.109Z,1019.11
2022-11-26T03:37:26.105Z,1019.11
2022-11-26T03:38:26.099Z,1019.14
2022-11-26T03:39:26.104Z,1019.15
2022-11-26T03:40:26.099Z,1019.13
2022-11-26T03:41:26.101Z,1019.19
2022-11-26T03:42:26.094Z,1019.17
2022-11-26T03:43:26.093Z,1019.21
2022-11-26T03:44:26.093Z,1019.24
2022-11-26T03:45:26.093Z,1019.24
2022-11-26T03:46:26.090Z,1019.21
2022-11-26T03:47:26.087Z,1019.24
2022-11-26T03:48:26.085Z,1019.25
2022-11-26T03:49:26.090Z,1019.24
2022-11-26T03:50:26.080Z,1019.25
2022-11-26T03:51:26.100Z,1019.28
2022-11-26T03:52:26.072Z,1019.24
2022-11-26T03:53:26.077Z,1019.31
2022-11-26T03:54:26.072Z,1019.31
2022-11-26T03:55:26.074Z,1019.35
2022-11-26T03:56:26.065Z,1019.35
2022-11-26T03:57:26.066Z,1019.33
2022-11-26T03:58:26.062Z,1019.33
2022-11-26T03:59:26.065Z,1019.31
2022-11-26T04:00:26.061Z,1019.34
2022-11-26T04:01:26.127Z,1019.35
2022-11-26T04:02:26.056Z,1019.35
2022-11-26T04:03:26.173Z,1019.38
2022-11-26T04:04:26.050Z,1019.36
2022-11-26T04:05:26.053Z,1019.36
2022-11-26T04:06:26.050Z,1019.40
2022-11-26T04:07:26.137Z,1019.40
2022-11-26T04:08:26.043Z,1019.40
2022-11-26T04:09:26.047Z,1019.40
2022-11-26T04:10:26.048Z,1019.38
2022-11-26T04:11:26.045Z,1019.43
2022-11-26T04:12:26.041Z,1019.41
2022-11-26T04:13:26.038Z,1019.46
2022-11-26T04:14:26.033Z,1019.48
2022-11-26T04:15:26.034Z,1019.47
2022-11-26T04:16:26.130Z,1019.49
2022-11-26T04:17:26.037Z,1019.46
2022-11-26T04:18:26.032Z,1019.50
2022-11-26T04:19:26.026Z,1019.53
2022-11-26T04:20:26.027Z,1019.52
2022-11-26T04:21:26.026Z,1019.52
2022-11-26T04:22:26.016Z,1019.52
2022-11-26T04:23:26.051Z,1019.54
2022-11-26T04:24:26.016Z,1019.56
2022-11-26T04:25:26.018Z,1019.52
2022-11-26T04:26:26.007Z,1019.54
2022-11-26T04:27:26.014Z,1019.54
2022-11-26T04:28:26.011Z,1019.55
2022-11-26T04:29:26.013Z,1019.53
2022-11-26T04:30:26.437Z,1019.58
2022-11-26T04:31:26.112Z,1019.57
2022-11-26T04:32:26.001Z,1019.59
2022-11-26T04:33:26.007Z,1019.59
2022-11-26T04:34:25.997Z,1019.62
2022-11-26T04:35:26.003Z,1019.65
2022-11-26T04:36:25.995Z,1019.68
2022-11-26T04:37:26.003Z,1019.67
2022-11-26T04:38:26.252Z,1019.69
2022-11-26T04:39:26.026Z,1019.71
2022-11-26T04:40:25.985Z,1019.73
2022-11-26T04:41:25.990Z,1019.77
2022-11-26T04:42:25.982Z,1019.79
2022-11-26T04:43:25.986Z,1019.82
2022-11-26T04:44:25.982Z,1019.87
2022-11-26T04:45:26.034Z,1019.86
2022-11-26T04:46:25.979Z,1019.90
2022-11-26T04:47:25.977Z,1019.83
2022-11-26T04:48:25.971Z,1019.86
2022-11-26T04:49:25.976Z,1019.93
2022-11-26T04:50:25.968Z,1019.91
2022-11-26T04:51:25.968Z,1019.93
2022-11-26T04:52:25.963Z,1019.97
2022-11-26T04:53:25.965Z,1019.85
2022-11-26T04:54:25.962Z,1019.96
2022-11-26T04:55:25.987Z,1019.99
2022-11-26T04:56:25.957Z,1020.05
2022-11-26T04:57:26.388Z,1020.05
2022-11-26T04:58:25.953Z,1020.02
2022-11-26T04:59:25.959Z,1020.05
2022-11-26T05:00:25.953Z,1020.09
2022-11-26T05:01:25.977Z,1020.07
2022-11-26T05:02:25.983Z,1020.12
2022-11-26T05:03:25.950Z,1020.10
2022-11-26T05:04:25.942Z,1020.09
2022-11-26T05:05:25.945Z,1020.12
2022-11-26T05:06:25.940Z,1020.15
2022-11-26T05:07:26.023Z,1020.16
2022-11-26T05:08:25.936Z,1020.15
2022-11-26T05:09:25.946Z,1020.11
2022-11-26T05:10:25.934Z,1020.13
2022-11-26T05:11:25.960Z,1020.07
2022-11-26T05:12:25.927Z,1020.15
2022-11-26T05:13:25.933Z,1020.12
2022-11-26T05:14:25.925Z,1020.16
2022-11-26T05:15:25.930Z,1020.23
2022-11-26T05:16:25.975Z,1020.19
2022-11-26T05:17:25.929Z,1020.24
2022-11-26T05:18:25.930Z,1020.27
2022-11-26T05:19:25.924Z,1020.26
2022-11-26T05:20:25.918Z,1020.25
2022-11-26T05:21:25.918Z,1020.29
2022-11-26T05:22:25.918Z,1020.28
2022-11-26T05:23:25.911Z,1020.32
2022-11-26T05:24:25.916Z,1020.35
2022-11-26T05:25:25.910Z,1020.34
2022-11-26T05:26:25.909Z,1020.30
2022-11-26T05:27:25.928Z,1020.33
2022-11-26T05:28:25.904Z,1020.33
2022-11-26T05:29:25.903Z,1020.32
2022-11-26T05:30:25.895Z,1020.38
2022-11-26T05:31:25.964Z,1020.34
2022-11-26T05:32:25.894Z,1020.39
2022-11-26T05:33:25.897Z,1020.43
2022-11-26T05:34:25.888Z,1020.43
2022-11-26T05:35:25.893Z,1020.42
2022-11-26T05:36:25.891Z,1020.41
2022-11-26T05:37:25.899Z,1020.49
2022-11-26T05:38:25.890Z,1020.43
2022-11-26T05:39:25.885Z,1020.45
2022-11-26T05:40:25.882Z,1020.40
2022-11-26T05:41:25.884Z,1020.43
2022-11-26T05:42:25.876Z,1020.40
2022-11-26T05:43:25.901Z,1020.45
2022-11-26T05:44:25.877Z,1020.46
2022-11-26T05:45:25.934Z,1020.49
2022-11-26T05:46:25.873Z,1020.54
2022-11-26T05:47:25.870Z,1020.56
2022-11-26T05:48:25.866Z,1020.59
2022-11-26T05:49:25.866Z,1020.58
2022-11-26T05:50:25.865Z,1020.62
2022-11-26T05:51:25.862Z,1020.66
2022-11-26T05:52:25.861Z,1020.66
2022-11-26T05:53:25.859Z,1020.70
2022-11-26T05:54:25.855Z,1020.70
2022-11-26T05:55:25.859Z,1020.74
2022-11-26T05:56:25.851Z,1020.74
2022-11-26T05:57:25.852Z,1020.72
2022-11-26T05:58:25.854Z,1020.68
2022-11-26T05:59:25.882Z,1020.73
2022-11-26T06:00:25.845Z,1020.72
2022-11-26T06:01:25.850Z,1020.74
2022-11-26T06:02:25.971Z,1020.71
2022-11-26T06:03:25.943Z,1020.76
2022-11-26T06:04:25.843Z,1020.77
2022-11-26T06:05:25.839Z,1020.76
2022-11-26T06:06:25.837Z,1020.78
2022-11-26T06:07:25.873Z,1020.79
2022-11-26T06:08:25.833Z,1020.84
2022-11-26T06:09:25.833Z,1020.79
2022-11-26T06:10:25.829Z,1020.84
2022-11-26T06:11:25.828Z,1020.86
2022-11-26T06:12:25.827Z,1020.87
2022-11-26T06:13:25.829Z,1020.92
2022-11-26T06:14:25.822Z,1020.89
2022-11-26T06:15:25.842Z,1020.94
2022-11-26T06:16:25.905Z,1020.88
2022-11-26T06:17:25.821Z,1020.96
2022-11-26T06:18:25.813Z,1020.93
2022-11-26T06:19:25.816Z,1020.92
2022-11-26T06:20:25.810Z,1021.00
2022-11-26T06:21:25.824Z,1021.00
2022-11-26T06:22:25.815Z,1021.02
2022-11-26T06:23:25.814Z,1021.04
2022-11-26T06:24:25.804Z,1021.11
2022-11-26T06:25:25.811Z,1021.11
2022-11-26T06:26:25.811Z,1021.13
2022-11-26T06:27:25.802Z,1021.15
2022-11-26T06:28:25.804Z,1021.17
2022-11-26T06:29:28.168Z,1021.16
2022-11-26T06:30:25.795Z,1021.18
2022-11-26T06:31:25.851Z,1021.23
2022-11-26T06:32:25.820Z,1021.23
2022-11-26T06:33:25.796Z,1021.27
2022-11-26T06:34:25.798Z,1021.27
2022-11-26T06:35:25.796Z,1021.30
2022-11-26T06:36:25.788Z,1021.29
2022-11-26T06:37:25.793Z,1021.33
2022-11-26T06:38:25.793Z,1021.29
2022-11-26T06:39:25.781Z,1021.36
2022-11-26T06:40:25.779Z,1021.38
2022-11-26T06:41:25.777Z,1021.36
2022-11-26T06:42:25.775Z,1021.39
2022-11-26T06:43:25.978Z,1021.38
2022-11-26T06:44:25.773Z,1021.36
2022-11-26T06:45:25.852Z,1021.35
2022-11-26T06:46:25.770Z,1021.38
2022-11-26T06:47:25.782Z,1021.41
2022-11-26T06:48:25.771Z,1021.40
2022-11-26T06:49:25.755Z,1021.39
2022-11-26T06:50:25.764Z,1021.44
2022-11-26T06:51:25.758Z,1021.42
2022-11-26T06:52:25.763Z,1021.45
2022-11-26T06:53:25.755Z,1021.49
2022-11-26T06:54:25.762Z,1021.44
2022-11-26T06:55:25.755Z,1021.51
2022-11-26T06:56:25.757Z,1021.50
2022-11-26T06:57:25.753Z,1021.52
2022-11-26T06:58:25.754Z,1021.56
2022-11-26T06:59:25.744Z,1021.58
2022-11-26T07:00:25.743Z,1021.59
2022-11-26T07:01:25.817Z,1021.59
2022-11-26T07:02:25.880Z,1021.61
2022-11-26T07:03:30.495Z,1021.66
2022-11-26T07:04:25.741Z,1021.67
2022-11-26T07:05:25.740Z,1021.71
2022-11-26T07:06:25.737Z,1021.74
2022-11-26T07:07:25.826Z,1021.73
2022-11-26T07:08:25.741Z,1021.74
2022-11-26T07:09:25.730Z,1021.74
2022-11-26T07:10:25.726Z,1021.71
2022-11-26T07:11:25.724Z,1021.75
2022-11-26T07:12:25.726Z,1021.78
2022-11-26T07:13:25.722Z,1021.75
2022-11-26T07:14:25.732Z,1021.80
2022-11-26T07:15:25.718Z,1021.81
2022-11-26T07:16:25.822Z,1021.78
2022-11-26T07:17:25.716Z,1021.80
2022-11-26T07:18:25.707Z,1021.82
2022-11-26T07:19:25.735Z,1021.81
2022-11-26T07:20:25.713Z,1021.81
2022-11-26T07:21:25.712Z,1021.85
2022-11-26T07:22:25.709Z,1021.81
2022-11-26T07:23:25.701Z,1021.83
2022-11-26T07:24:25.705Z,1021.89
2022-11-26T07:25:25.701Z,1021.87
2022-11-26T07:26:25.701Z,1021.92
2022-11-26T07:27:25.699Z,1021.90
2022-11-26T07:28:25.700Z,1021.92
2022-11-26T07:29:25.693Z,1021.93
2022-11-26T07:30:25.691Z,1021.99
2022-11-26T07:31:25.758Z,1021.97
2022-11-26T07:32:25.705Z,1021.98
2022-11-26T07:33:25.683Z,1021.95
2022-11-26T07:34:25.684Z,1021.94
2022-11-26T07:35:25.699Z,1021.96
2022-11-26T07:36:25.687Z,1021.99
2022-11-26T07:37:25.679Z,1021.96
2022-11-26T07:38:25.680Z,1021.94
2022-11-26T07:39:25.673Z,1022.00
2022-11-26T07:40:25.674Z,1022.02
2022-11-26T07:41:25.676Z,1021.99
2022-11-26T07:42:25.695Z,1022.05
2022-11-26T07:43:25.667Z,1022.01
2022-11-26T07:44:25.670Z,1022.06
2022-11-26T07:45:25.666Z,1022.02
2022-11-26T07:46:25.836Z,1022.06
2022-11-26T07:47:25.681Z,1022.03
2022-11-26T07:48:25.665Z,1022.08
2022-11-26T07:49:25.659Z,1022.06
2022-11-26T07:50:25.662Z,1022.09
2022-11-26T07:51:25.685Z,1022.08
2022-11-26T07:52:25.658Z,1022.09
2022-11-26T07:53:25.655Z,1022.10
2022-11-26T07:54:25.654Z,1022.09
2022-11-26T07:55:25.647Z,1022.14
2022-11-26T07:56:25.654Z,1022.14
2022-11-26T07:57:25.659Z,1022.08
2022-11-26T07:58:25.649Z,1022.14
2022-11-26T07:59:25.642Z,1022.15
2022-11-26T08:00:25.645Z,1022.17
2022-11-26T08:01:25.698Z,1022.17
2022-11-26T08:02:25.719Z,1022.15
2022-11-26T08:03:25.636Z,1022.21
2022-11-26T08:04:25.636Z,1022.22
2022-11-26T08:05:25.632Z,1022.23
2022-11-26T08:06:25.646Z,1022.23
2022-11-26T08:07:29.213Z,1022.26
2022-11-26T08:08:25.630Z,1022.28
2022-11-26T08:09:25.627Z,1022.27
2022-11-26T08:10:25.635Z,1022.31
2022-11-26T08:11:25.620Z,1022.27
2022-11-26T08:12:25.627Z,1022.32
2022-11-26T08:13:25.618Z,1022.37
2022-11-26T08:14:25.620Z,1022.38
2022-11-26T08:15:25.613Z,1022.37
2022-11-26T08:16:28.619Z,1022.41
2022-11-26T08:17:25.610Z,1022.41
2022-11-26T08:18:25.616Z,1022.44
2022-11-26T08:19:25.612Z,1022.43
2022-11-26T08:20:28.888Z,1022.45
2022-11-26T08:21:25.608Z,1022.46
2022-11-26T08:22:25.606Z,1022.45
2022-11-26T08:23:25.627Z,1022.46
2022-11-26T08:24:25.604Z,1022.49
2022-11-26T08:25:25.599Z,1022.49
2022-11-26T08:26:33.596Z,1022.48
2022-11-26T08:27:25.597Z,1022.50
2022-11-26T08:28:25.604Z,1022.52
2022-11-26T08:29:25.599Z,1022.57
2022-11-26T08:30:25.595Z,1022.57
2022-11-26T08:31:25.623Z,1022.57
2022-11-26T08:32:25.593Z,1022.64
2022-11-26T08:33:25.591Z,1022.60
2022-11-26T08:34:25.587Z,1022.61
2022-11-26T08:35:38.852Z,1022.61
2022-11-26T08:36:25.585Z,1022.65
2022-11-26T08:37:25.581Z,1022.67
2022-11-26T08:38:25.584Z,1022.67
2022-11-26T08:39:25.732Z,1022.64
2022-11-26T08:40:25.670Z,1022.66
2022-11-26T08:41:25.584Z,1022.71
2022-11-26T08:42:25.575Z,1022.67
2022-11-26T08:43:45.058Z,1022.71
2022-11-26T08:44:25.575Z,1022.74
2022-11-26T08:45:25.567Z,1022.72
2022-11-26T08:46:25.728Z,1022.75
2022-11-26T08:47:25.565Z,1022.76
2022-11-26T08:48:29.069Z,1022.72
2022-11-26T08:49:25.565Z,1022.78
2022-11-26T08:50:25.723Z,1022.74
2022-11-26T08:51:25.569Z,1022.78
2022-11-26T08:52:25.563Z,1022.79
2022-11-26T08:53:25.556Z,1022.78
2022-11-26T08:54:25.562Z,1022.85
2022-11-26T08:55:27.134Z,1022.84
2022-11-26T08:56:25.556Z,1022.88
2022-11-26T08:57:25.553Z,1022.84
2022-11-26T08:58:25.553Z,1022.88
2022-11-26T08:59:25.550Z,1022.86
2022-11-26T09:00:25.552Z,1022.90
2022-11-26T09:01:25.586Z,1022.95
2022-11-26T09:02:25.545Z,1022.91
2022-11-26T09:03:25.646Z,1022.92
2022-11-26T09:04:25.543Z,1022.94
2022-11-26T09:05:25.544Z,1022.96
2022-11-26T09:06:25.544Z,1022.94
2022-11-26T09:07:25.583Z,1022.93
2022-11-26T09:08:25.543Z,1022.98
2022-11-26T09:09:25.532Z,1023.00
2022-11-26T09:10:25.536Z,1023.04
2022-11-26T09:11:25.577Z,1023.04
2022-11-26T09:12:25.539Z,1023.04
2022-11-26T09:13:25.527Z,1023.08
2022-11-26T09:14:25.534Z,1023.06
2022-11-26T09:15:25.523Z,1023.07
2022-11-26T09:16:25.605Z,1023.04
2022-11-26T09:17:25.519Z,1023.06
2022-11-26T09:18:25.531Z,1023.10
2022-11-26T09:19:25.519Z,1023.09
2022-11-26T09:20:25.543Z,1023.12
2022-11-26T09:21:25.521Z,1023.14
2022-11-26T09:22:25.522Z,1023.14
2022-11-26T09:23:25.516Z,1023.19
2022-11-26T09:24:25.519Z,1023.15
2022-11-26T09:25:25.515Z,1023.13
2022-11-26T09:26:25.513Z,1023.17
2022-11-26T09:27:25.536Z,1023.18
2022-11-26T09:28:25.512Z,1023.20
2022-11-26T09:29:25.517Z,1023.17
2022-11-26T09:30:25.513Z,1023.21
2022-11-26T09:31:25.621Z,1023.22
2022-11-26T09:32:30.965Z,1023.15
2022-11-26T09:33:25.503Z,1023.17
2022-11-26T09:34:25.522Z,1023.19
2022-11-26T09:35:25.502Z,1023.19
2022-11-26T09:36:25.502Z,1023.24
2022-11-26T09:37:25.503Z,1023.26
2022-11-26T09:38:25.509Z,1023.25
2022-11-26T09:39:25.496Z,1023.27
2022-11-26T09:40:25.499Z,1023.28
2022-11-26T09:41:25.492Z,1023.25
2022-11-26T09:42:25.498Z,1023.30
2022-11-26T09:43:25.510Z,1023.30
2022-11-26T09:44:25.490Z,1023.32
2022-11-26T09:45:25.523Z,1023.29
2022-11-26T09:46:25.484Z,1023.32
2022-11-26T09:47:25.493Z,1023.35
2022-11-26T09:48:25.488Z,1023.34
2022-11-26T09:49:25.484Z,1023.35
2022-11-26T09:50:25.487Z,1023.38
2022-11-26T09:51:25.479Z,1023.41
2022-11-26T09:52:25.485Z,1023.41
2022-11-26T09:53:25.479Z,1023.42
2022-11-26T09:54:25.489Z,1023.43
2022-11-26T09:55:25.479Z,1023.43
2022-11-26T09:56:25.481Z,1023.46
2022-11-26T09:57:25.471Z,1023.48
2022-11-26T09:58:27.469Z,1023.51
2022-11-26T09:59:25.488Z,1023.52
2022-11-26T10:00:25.475Z,1023.48
2022-11-26T10:01:25.520Z,1023.50
2022-11-26T10:02:25.532Z,1023.48
2022-11-26T10:03:25.462Z,1023.50
2022-11-26T10:04:25.477Z,1023.52
2022-11-26T10:05:25.466Z,1023.49
2022-11-26T10:06:25.465Z,1023.54
2022-11-26T10:07:25.548Z,1023.54
2022-11-26T10:08:25.464Z,1023.58
2022-11-26T10:09:25.457Z,1023.60
2022-11-26T10:10:25.458Z,1023.58
2022-11-26T10:11:25.458Z,1023.63
2022-11-26T10:12:26.462Z,1023.59
2022-11-26T10:13:25.455Z,1023.66
2022-11-26T10:14:25.455Z,1023.69
2022-11-26T10:15:25.469Z,1023.70
2022-11-26T10:16:25.541Z,1023.70
2022-11-26T10:17:25.447Z,1023.70
2022-11-26T10:18:25.449Z,1023.67
2022-11-26T10:19:25.445Z,1023.71
2022-11-26T10:20:25.449Z,1023.73
2022-11-26T10:21:38.069Z,1023.71
2022-11-26T10:22:25.448Z,1023.71
2022-11-26T10:23:25.462Z,1023.65
2022-11-26T10:24:25.442Z,1023.71
2022-11-26T10:25:25.441Z,1023.70
2022-11-26T10:26:25.438Z,1023.71
2022-11-26T10:27:25.437Z,1023.72
2022-11-26T10:28:25.437Z,1023.74
2022-11-26T10:29:25.439Z,1023.70
2022-11-26T10:30:25.463Z,1023.71
2022-11-26T10:31:25.518Z,1023.73
2022-11-26T10:32:25.435Z,1023.75
2022-11-26T10:33:25.428Z,1023.72
2022-11-26T10:34:28.904Z,1023.78
2022-11-26T10:35:25.430Z,1023.81
2022-11-26T10:36:25.422Z,1023.80
2022-11-26T10:37:25.426Z,1023.80
2022-11-26T10:38:25.427Z,1023.79
2022-11-26T10:39:25.424Z,1023.77
2022-11-26T10:40:25.457Z,1023.79
2022-11-26T10:41:25.423Z,1023.81
2022-11-26T10:42:25.425Z,1023.86
2022-11-26T10:43:25.416Z,1023.86
2022-11-26T10:44:25.421Z,1023.88
2022-11-26T10:45:25.424Z,1023.85
2022-11-26T10:46:25.489Z,1023.86
2022-11-26T10:47:25.439Z,1023.89
2022-11-26T10:48:25.428Z,1023.89
2022-11-26T10:49:25.421Z,1023.92
2022-11-26T10:50:47.104Z,1023.90
2022-11-26T10:51:26.725Z,1023.91
2022-11-26T10:52:25.404Z,1023.92
2022-11-26T10:53:25.408Z,1023.95
2022-11-26T10:54:25.403Z,1023.94
2022-11-26T10:55:25.404Z,1023.99
2022-11-26T10:56:25.405Z,1023.97
2022-11-26T10:57:25.403Z,1023.97
2022-11-26T10:58:25.398Z,1023.99
2022-11-26T10:59:25.399Z,1024.03
2022-11-26T11:00:25.399Z,1024.04
2022-11-26T11:01:25.507Z,1023.99
2022-11-26T11:02:25.433Z,1024.02
2022-11-26T11:03:51.745Z,1024.01
2022-11-26T11:04:25.392Z,1024.03
2022-11-26T11:08:08.699Z,1024.03
2022-11-26T11:09:08.695Z,1024.01
2022-11-26T11:10:08.691Z,1024.03
2022-11-26T11:11:08.686Z,1024.02
2022-11-26T11:12:08.689Z,1024.04
2022-11-26T11:13:08.683Z,1024.06
2022-11-26T11:14:08.690Z,1024.05
2022-11-26T11:15:08.688Z,1024.11
2022-11-26T11:16:08.735Z,1024.04
2022-11-26T11:17:08.676Z,1024.11
2022-11-26T11:18:08.677Z,1024.11
2022-11-26T11:19:08.699Z,1024.08
2022-11-26T11:20:08.680Z,1024.08
2022-11-26T11:21:08.674Z,1024.11
2022-11-26T11:22:08.674Z,1024.11
2022-11-26T11:23:08.682Z,1024.12
2022-11-26T11:24:09.334Z,1024.07
2022-11-26T11:25:08.665Z,1024.09
2022-11-26T11:26:08.670Z,1024.11
2022-11-26T11:27:08.664Z,1024.13
2022-11-26T11:28:12.185Z,1024.14
2022-11-26T11:29:08.667Z,1024.16
2022-11-26T11:30:08.680Z,1024.14
2022-11-26T11:31:08.731Z,1024.15
2022-11-26T11:32:08.665Z,1024.17
2022-11-26T11:33:08.656Z,1024.16
2022-11-26T11:34:08.655Z,1024.19
2022-11-26T11:35:08.680Z,1024.18
2022-11-26T11:36:08.657Z,1024.24
2022-11-26T11:37:11.740Z,1024.22
2022-11-26T11:38:08.653Z,1024.20
2022-11-26T11:39:08.672Z,1024.20
2022-11-26T11:40:10.811Z,1024.21
2022-11-26T11:41:08.645Z,1024.23
2022-11-26T11:42:08.647Z,1024.24
2022-11-26T11:43:08.642Z,1024.22
2022-11-26T11:44:08.647Z,1024.21
2022-11-26T11:45:08.639Z,1024.20
2022-11-26T11:46:08.672Z,1024.24
2022-11-26T11:47:08.639Z,1024.23
2022-11-26T11:48:08.638Z,1024.27
2022-11-26T11:49:08.638Z,1024.27
2022-11-26T11:50:08.640Z,1024.26
2022-11-26T11:51:08.656Z,1024.29
2022-11-26T11:52:08.641Z,1024.32
2022-11-26T11:53:08.635Z,1024.30
2022-11-26T11:54:08.634Z,1024.31
2022-11-26T11:55:08.632Z,1024.34
2022-11-26T11:56:08.633Z,1024.34
2022-11-26T11:57:08.628Z,1024.31
2022-11-26T11:58:08.627Z,1024.35
2022-11-26T11:59:08.637Z,1024.31
2022-11-26T12:00:08.631Z,1024.34
2022-11-26T12:01:08.623Z,1024.30
2022-11-26T12:02:08.691Z,1024.35
2022-11-26T12:03:10.586Z,1024.31
2022-11-26T12:04:09.560Z,1024.35
2022-11-26T12:05:08.672Z,1024.36
2022-11-26T12:06:08.628Z,1024.33
2022-11-26T12:07:08.705Z,1024.33
2022-11-26T12:08:08.616Z,1024.31